sensor_id;sensor_type;location;lat;lon;timestamp;temperature;humidity
62555;DHT22;48610;52.144;8.624;2023-02-26T00:02:47;1.10;99.90
62555;DHT22;48610;52.144;8.624;2023-02-26T00:05:48;1.00;99.90
62555;DHT22;48610;52.144;8.624;2023-02-26T00:08:49;0.80;99.90
62555;DHT22;48610;52.144;8.624;2023-02-26T00:11:50;0.80;99.90
62555;DHT22;48610;52.144;8.624;2023-02-26T00:14:51;0.80;99.90
62555;DHT22;48610;52.144;8.624;2023-02-26T00:21:03;0.90;99.90
62555;DHT22;48610;52.144;8.624;2023-02-26T00:24:04;0.90;99.90
62555;DHT22;48610;52.144;8.624;2023-02-26T00:27:05;0.80;99.90
62555;DHT22;48610;52.144;8.624;2023-02-26T00:30:08;0.90;99.90
62555;DHT22;48610;52.144;8.624;2023-02-26T00:33:09;0.90;99.90
62555;DHT22;48610;52.144;8.624;2023-02-26T00:36:39;1.00;99.90
62555;DHT22;48610;52.144;8.624;2023-02-26T00:40:04;1.00;99.90
62555;DHT22;48610;52.144;8.624;2023-02-26T00:43:22;0.90;99.90
62555;DHT22;48610;52.144;8.624;2023-02-26T00:46:50;1.00;99.90
62555;DHT22;48610;52.144;8.624;2023-02-26T00:53:26;1.10;99.90
62555;DHT22;48610;52.144;8.624;2023-02-26T00:56:28;1.20;99.90
62555;DHT22;48610;52.144;8.624;2023-02-26T00:59:28;1.30;99.90
62555;DHT22;48610;52.144;8.624;2023-02-26T01:02:29;1.10;99.90
62555;DHT22;48610;52.144;8.624;2023-02-26T01:05:30;1.10;99.90
62555;DHT22;48610;52.144;8.624;2023-02-26T01:08:34;1.20;99.90
62555;DHT22;48610;52.144;8.624;2023-02-26T01:11:36;1.40;99.90
62555;DHT22;48610;52.144;8.624;2023-02-26T01:14:38;1.50;99.90
62555;DHT22;48610;52.144;8.624;2023-02-26T01:18:17;1.40;99.90
62555;DHT22;48610;52.144;8.624;2023-02-26T01:21:26;1.20;99.90
62555;DHT22;48610;52.144;8.624;2023-02-26T01:24:29;1.00;99.90
62555;DHT22;48610;52.144;8.624;2023-02-26T01:27:30;1.20;99.90
62555;DHT22;48610;52.144;8.624;2023-02-26T01:30:31;1.20;99.90
62555;DHT22;48610;52.144;8.624;2023-02-26T01:33:50;1.20;99.90
62555;DHT22;48610;52.144;8.624;2023-02-26T01:36:57;1.30;99.90
62555;DHT22;48610;52.144;8.624;2023-02-26T01:40:35;1.30;99.90
62555;DHT22;48610;52.144;8.624;2023-02-26T01:43:46;1.40;99.90
62555;DHT22;48610;52.144;8.624;2023-02-26T01:47:14;1.60;99.90
62555;DHT22;48610;52.144;8.624;2023-02-26T01:50:18;1.40;99.90
62555;DHT22;48610;52.144;8.624;2023-02-26T01:53:25;1.40;99.90
62555;DHT22;48610;52.144;8.624;2023-02-26T01:56:25;1.60;99.90
62555;DHT22;48610;52.144;8.624;2023-02-26T01:59:26;1.50;99.90
62555;DHT22;48610;52.144;8.624;2023-02-26T02:02:27;1.40;99.90
62555;DHT22;48610;52.144;8.624;2023-02-26T02:05:32;1.40;99.90
62555;DHT22;48610;52.144;8.624;2023-02-26T02:08:35;1.30;99.90
62555;DHT22;48610;52.144;8.624;2023-02-26T02:11:42;1.10;99.90
62555;DHT22;48610;52.144;8.624;2023-02-26T02:14:49;1.00;99.90
62555;DHT22;48610;52.144;8.624;2023-02-26T02:18:17;1.00;99.90
62555;DHT22;48610;52.144;8.624;2023-02-26T02:35:35;1.00;99.90
62555;DHT22;48610;52.144;8.624;2023-02-26T02:38:44;0.90;99.90
62555;DHT22;48610;52.144;8.624;2023-02-26T02:41:52;1.00;99.90
62555;DHT22;48610;52.144;8.624;2023-02-26T02:45:02;1.00;99.90
62555;DHT22;48610;52.144;8.624;2023-02-26T02:48:20;1.00;99.90
62555;DHT22;48610;52.144;8.624;2023-02-26T02:51:29;1.10;99.90
62555;DHT22;48610;52.144;8.624;2023-02-26T02:54:38;1.00;99.90
62555;DHT22;48610;52.144;8.624;2023-02-26T02:57:48;0.90;99.90
62555;DHT22;48610;52.144;8.624;2023-02-26T03:00:53;0.90;99.90
62555;DHT22;48610;52.144;8.624;2023-02-26T03:04:00;0.90;99.90
62555;DHT22;48610;52.144;8.624;2023-02-26T03:07:02;0.80;99.90
62555;DHT22;48610;52.144;8.624;2023-02-26T03:10:02;0.80;99.90
62555;DHT22;48610;52.144;8.624;2023-02-26T03:13:04;0.70;99.90
62555;DHT22;48610;52.144;8.624;2023-02-26T03:16:08;0.80;99.90
62555;DHT22;48610;52.144;8.624;2023-02-26T03:19:48;0.80;99.90
62555;DHT22;48610;52.144;8.624;2023-02-26T03:26:18;0.60;99.90
62555;DHT22;48610;52.144;8.624;2023-02-26T03:32:35;0.80;99.90
62555;DHT22;48610;52.144;8.624;2023-02-26T03:38:57;0.70;99.90
62555;DHT22;48610;52.144;8.624;2023-02-26T03:42:07;0.80;99.90
62555;DHT22;48610;52.144;8.624;2023-02-26T03:45:13;0.70;99.90
62555;DHT22;48610;52.144;8.624;2023-02-26T03:48:18;0.70;99.90
62555;DHT22;48610;52.144;8.624;2023-02-26T03:51:21;0.50;99.90
62555;DHT22;48610;52.144;8.624;2023-02-26T03:54:30;0.40;99.90
62555;DHT22;48610;52.144;8.624;2023-02-26T03:57:32;0.40;99.90
62555;DHT22;48610;52.144;8.624;2023-02-26T04:00:33;0.40;99.90
62555;DHT22;48610;52.144;8.624;2023-02-26T04:03:58;0.30;99.90
62555;DHT22;48610;52.144;8.624;2023-02-26T04:06:59;0.20;99.90
62555;DHT22;48610;52.144;8.624;2023-02-26T04:10:00;0.30;99.90
62555;DHT22;48610;52.144;8.624;2023-02-26T04:13:01;0.50;99.90
62555;DHT22;48610;52.144;8.624;2023-02-26T04:16:03;0.60;99.90
62555;DHT22;48610;52.144;8.624;2023-02-26T04:19:03;0.60;99.90
62555;DHT22;48610;52.144;8.624;2023-02-26T04:22:04;0.50;99.90
62555;DHT22;48610;52.144;8.624;2023-02-26T04:25:05;0.50;99.90
62555;DHT22;48610;52.144;8.624;2023-02-26T04:28:06;0.70;99.90
62555;DHT22;48610;52.144;8.624;2023-02-26T04:31:07;0.70;99.90
62555;DHT22;48610;52.144;8.624;2023-02-26T04:34:08;0.70;99.90
62555;DHT22;48610;52.144;8.624;2023-02-26T04:37:08;0.80;99.90
62555;DHT22;48610;52.144;8.624;2023-02-26T04:40:10;0.80;99.90
62555;DHT22;48610;52.144;8.624;2023-02-26T04:43:11;0.90;99.90
62555;DHT22;48610;52.144;8.624;2023-02-26T04:46:12;0.90;99.90
62555;DHT22;48610;52.144;8.624;2023-02-26T04:49:12;1.10;99.90
62555;DHT22;48610;52.144;8.624;2023-02-26T04:52:13;1.10;99.90
62555;DHT22;48610;52.144;8.624;2023-02-26T04:55:14;1.20;99.90
62555;DHT22;48610;52.144;8.624;2023-02-26T04:58:14;1.20;99.90
62555;DHT22;48610;52.144;8.624;2023-02-26T05:01:15;1.30;99.90
62555;DHT22;48610;52.144;8.624;2023-02-26T05:04:16;1.10;99.90
62555;DHT22;48610;52.144;8.624;2023-02-26T05:07:16;0.80;99.90
62555;DHT22;48610;52.144;8.624;2023-02-26T05:10:17;1.10;99.90
62555;DHT22;48610;52.144;8.624;2023-02-26T05:13:18;0.90;99.90
62555;DHT22;48610;52.144;8.624;2023-02-26T05:16:19;1.00;99.90
62555;DHT22;48610;52.144;8.624;2023-02-26T05:19:20;1.10;99.90
62555;DHT22;48610;52.144;8.624;2023-02-26T05:22:20;1.10;99.90
62555;DHT22;48610;52.144;8.624;2023-02-26T05:25:21;0.80;99.90
62555;DHT22;48610;52.144;8.624;2023-02-26T05:28:23;0.70;99.90
62555;DHT22;48610;52.144;8.624;2023-02-26T05:31:23;0.70;99.90
62555;DHT22;48610;52.144;8.624;2023-02-26T05:34:26;0.80;99.90
62555;DHT22;48610;52.144;8.624;2023-02-26T05:37:27;0.60;99.90
62555;DHT22;48610;52.144;8.624;2023-02-26T05:40:28;0.60;99.90
62555;DHT22;48610;52.144;8.624;2023-02-26T05:43:28;0.70;99.90
62555;DHT22;48610;52.144;8.624;2023-02-26T05:46:29;0.70;99.90
62555;DHT22;48610;52.144;8.624;2023-02-26T05:49:29;0.80;99.90
62555;DHT22;48610;52.144;8.624;2023-02-26T05:52:30;0.90;99.90
62555;DHT22;48610;52.144;8.624;2023-02-26T05:55:31;0.80;99.90
62555;DHT22;48610;52.144;8.624;2023-02-26T05:58:31;0.70;99.90
62555;DHT22;48610;52.144;8.624;2023-02-26T06:01:33;0.70;99.90
62555;DHT22;48610;52.144;8.624;2023-02-26T06:04:34;0.50;99.90
62555;DHT22;48610;52.144;8.624;2023-02-26T06:07:35;0.40;99.90
62555;DHT22;48610;52.144;8.624;2023-02-26T06:10:35;0.40;99.90
62555;DHT22;48610;52.144;8.624;2023-02-26T06:13:36;0.50;99.90
62555;DHT22;48610;52.144;8.624;2023-02-26T06:16:37;0.20;99.90
62555;DHT22;48610;52.144;8.624;2023-02-26T06:19:38;0.10;99.90
62555;DHT22;48610;52.144;8.624;2023-02-26T06:22:39;0.10;99.90
62555;DHT22;48610;52.144;8.624;2023-02-26T06:25:40;0.00;99.90
62555;DHT22;48610;52.144;8.624;2023-02-26T06:28:41;0.00;99.90
62555;DHT22;48610;52.144;8.624;2023-02-26T06:31:42;0.20;99.90
62555;DHT22;48610;52.144;8.624;2023-02-26T06:34:43;-0.10;99.90
62555;DHT22;48610;52.144;8.624;2023-02-26T06:37:43;-0.20;99.90
62555;DHT22;48610;52.144;8.624;2023-02-26T06:40:46;-0.10;99.90
62555;DHT22;48610;52.144;8.624;2023-02-26T06:43:47;-0.30;99.90
62555;DHT22;48610;52.144;8.624;2023-02-26T06:46:48;-0.30;99.90
62555;DHT22;48610;52.144;8.624;2023-02-26T06:49:48;-0.30;99.90
62555;DHT22;48610;52.144;8.624;2023-02-26T06:52:51;-0.40;99.90
62555;DHT22;48610;52.144;8.624;2023-02-26T06:55:52;-0.40;99.90
62555;DHT22;48610;52.144;8.624;2023-02-26T06:58:54;-0.40;99.90
62555;DHT22;48610;52.144;8.624;2023-02-26T07:01:55;-0.10;99.90
62555;DHT22;48610;52.144;8.624;2023-02-26T07:04:56;-0.20;99.90
62555;DHT22;48610;52.144;8.624;2023-02-26T07:07:57;0.00;99.90
62555;DHT22;48610;52.144;8.624;2023-02-26T07:10:57;0.20;99.90
62555;DHT22;48610;52.144;8.624;2023-02-26T07:13:58;0.30;99.90
62555;DHT22;48610;52.144;8.624;2023-02-26T07:16:59;0.30;99.90
62555;DHT22;48610;52.144;8.624;2023-02-26T07:20:00;0.50;99.90
62555;DHT22;48610;52.144;8.624;2023-02-26T07:23:05;0.50;99.90
62555;DHT22;48610;52.144;8.624;2023-02-26T07:26:06;0.60;99.90
62555;DHT22;48610;52.144;8.624;2023-02-26T07:29:08;0.80;99.90
62555;DHT22;48610;52.144;8.624;2023-02-26T07:32:08;1.10;99.90
62555;DHT22;48610;52.144;8.624;2023-02-26T07:35:11;0.90;99.90
62555;DHT22;48610;52.144;8.624;2023-02-26T07:38:11;1.00;99.90
62555;DHT22;48610;52.144;8.624;2023-02-26T07:41:12;1.60;99.90
62555;DHT22;48610;52.144;8.624;2023-02-26T07:44:13;2.60;99.90
62555;DHT22;48610;52.144;8.624;2023-02-26T07:47:13;3.30;99.90
62555;DHT22;48610;52.144;8.624;2023-02-26T07:50:14;4.10;99.90
62555;DHT22;48610;52.144;8.624;2023-02-26T07:53:14;4.60;99.90
62555;DHT22;48610;52.144;8.624;2023-02-26T07:56:16;5.20;99.90
62555;DHT22;48610;52.144;8.624;2023-02-26T07:59:16;5.10;99.90
62555;DHT22;48610;52.144;8.624;2023-02-26T08:02:17;4.70;99.90
62555;DHT22;48610;52.144;8.624;2023-02-26T08:05:18;4.40;99.90
62555;DHT22;48610;52.144;8.624;2023-02-26T08:08:18;4.10;99.90
62555;DHT22;48610;52.144;8.624;2023-02-26T08:11:20;3.90;99.90
62555;DHT22;48610;52.144;8.624;2023-02-26T08:14:21;3.90;99.90
62555;DHT22;48610;52.144;8.624;2023-02-26T08:17:22;3.40;99.90
62555;DHT22;48610;52.144;8.624;2023-02-26T08:20:22;3.40;99.90
62555;DHT22;48610;52.144;8.624;2023-02-26T08:23:23;3.30;99.90
62555;DHT22;48610;52.144;8.624;2023-02-26T08:26:26;3.20;99.90
62555;DHT22;48610;52.144;8.624;2023-02-26T08:29:28;3.20;99.90
62555;DHT22;48610;52.144;8.624;2023-02-26T08:32:29;3.20;99.90
62555;DHT22;48610;52.144;8.624;2023-02-26T08:35:30;3.30;99.90
62555;DHT22;48610;52.144;8.624;2023-02-26T08:38:31;3.60;99.90
62555;DHT22;48610;52.144;8.624;2023-02-26T08:41:31;3.50;99.90
62555;DHT22;48610;52.144;8.624;2023-02-26T08:44:32;3.40;99.90
62555;DHT22;48610;52.144;8.624;2023-02-26T08:47:32;3.30;99.90
62555;DHT22;48610;52.144;8.624;2023-02-26T08:50:33;3.60;99.90
62555;DHT22;48610;52.144;8.624;2023-02-26T08:53:33;4.00;99.90
62555;DHT22;48610;52.144;8.624;2023-02-26T08:56:34;4.10;99.90
62555;DHT22;48610;52.144;8.624;2023-02-26T08:59:34;3.90;99.90
62555;DHT22;48610;52.144;8.624;2023-02-26T09:02:36;3.70;99.90
62555;DHT22;48610;52.144;8.624;2023-02-26T09:05:37;3.90;99.90
62555;DHT22;48610;52.144;8.624;2023-02-26T09:08:38;3.80;99.90
62555;DHT22;48610;52.144;8.624;2023-02-26T09:11:39;3.80;99.90
62555;DHT22;48610;52.144;8.624;2023-02-26T09:14:40;4.00;99.90
62555;DHT22;48610;52.144;8.624;2023-02-26T09:17:42;4.30;99.90
62555;DHT22;48610;52.144;8.624;2023-02-26T09:21:07;4.40;99.90
62555;DHT22;48610;52.144;8.624;2023-02-26T09:24:50;4.40;99.90
62555;DHT22;48610;52.144;8.624;2023-02-26T09:27:50;4.60;99.90
62555;DHT22;48610;52.144;8.624;2023-02-26T09:30:53;4.80;99.90
62555;DHT22;48610;52.144;8.624;2023-02-26T09:33:54;4.60;99.90
62555;DHT22;48610;52.144;8.624;2023-02-26T09:36:55;4.70;99.90
62555;DHT22;48610;52.144;8.624;2023-02-26T09:39:55;4.90;99.90
62555;DHT22;48610;52.144;8.624;2023-02-26T09:46:45;5.00;99.90
62555;DHT22;48610;52.144;8.624;2023-02-26T09:53:51;4.90;99.90
62555;DHT22;48610;52.144;8.624;2023-02-26T09:56:23;4.80;98.90
62555;DHT22;48610;52.144;8.624;2023-02-26T09:59:27;5.10;99.50
62555;DHT22;48610;52.144;8.624;2023-02-26T10:02:41;5.20;98.00
62555;DHT22;48610;52.144;8.624;2023-02-26T10:09:48;5.30;97.70
62555;DHT22;48610;52.144;8.624;2023-02-26T10:12:51;5.60;97.90
62555;DHT22;48610;52.144;8.624;2023-02-26T10:15:55;5.70;98.60
62555;DHT22;48610;52.144;8.624;2023-02-26T10:19:10;5.80;97.20
62555;DHT22;48610;52.144;8.624;2023-02-26T10:22:26;5.50;96.40
62555;DHT22;48610;52.144;8.624;2023-02-26T10:25:42;5.40;96.90
62555;DHT22;48610;52.144;8.624;2023-02-26T10:29:14;5.70;97.40
62555;DHT22;48610;52.144;8.624;2023-02-26T10:35:41;5.70;96.30
62555;DHT22;48610;52.144;8.624;2023-02-26T10:38:42;5.60;97.20
62555;DHT22;48610;52.144;8.624;2023-02-26T10:41:46;5.40;96.30
62555;DHT22;48610;52.144;8.624;2023-02-26T10:48:47;6.60;94.70
62555;DHT22;48610;52.144;8.624;2023-02-26T10:51:51;6.50;93.20
62555;DHT22;48610;52.144;8.624;2023-02-26T10:55:18;6.90;93.90
62555;DHT22;48610;52.144;8.624;2023-02-26T10:58:24;6.90;93.80
62555;DHT22;48610;52.144;8.624;2023-02-26T11:01:27;6.80;93.30
62555;DHT22;48610;52.144;8.624;2023-02-26T11:04:28;6.60;93.70
62555;DHT22;48610;52.144;8.624;2023-02-26T11:07:30;6.30;94.20
62555;DHT22;48610;52.144;8.624;2023-02-26T11:11:01;5.80;94.00
62555;DHT22;48610;52.144;8.624;2023-02-26T11:14:02;5.40;95.10
62555;DHT22;48610;52.144;8.624;2023-02-26T11:17:09;5.10;94.80
62555;DHT22;48610;52.144;8.624;2023-02-26T11:20:18;5.70;95.60
62555;DHT22;48610;52.144;8.624;2023-02-26T11:23:25;6.50;93.90
62555;DHT22;48610;52.144;8.624;2023-02-26T11:26:29;6.50;93.50
62555;DHT22;48610;52.144;8.624;2023-02-26T11:29:38;6.70;94.20
62555;DHT22;48610;52.144;8.624;2023-02-26T11:32:39;6.80;92.80
62555;DHT22;48610;52.144;8.624;2023-02-26T11:35:41;7.50;93.40
62555;DHT22;48610;52.144;8.624;2023-02-26T11:38:44;8.40;89.10
62555;DHT22;48610;52.144;8.624;2023-02-26T11:41:49;8.50;83.10
62555;DHT22;48610;52.144;8.624;2023-02-26T11:44:50;8.40;88.00
62555;DHT22;48610;52.144;8.624;2023-02-26T11:48:18;8.00;90.10
62555;DHT22;48610;52.144;8.624;2023-02-26T11:51:23;6.70;91.70
62555;DHT22;48610;52.144;8.624;2023-02-26T11:54:27;6.20;93.10
62555;DHT22;48610;52.144;8.624;2023-02-26T11:57:29;5.80;93.10
62555;DHT22;48610;52.144;8.624;2023-02-26T12:00:35;5.70;94.50
62555;DHT22;48610;52.144;8.624;2023-02-26T12:03:39;6.00;94.30
62555;DHT22;48610;52.144;8.624;2023-02-26T12:06:42;5.80;93.30
62555;DHT22;48610;52.144;8.624;2023-02-26T12:09:44;5.50;93.70
62555;DHT22;48610;52.144;8.624;2023-02-26T12:13:14;6.20;94.70
62555;DHT22;48610;52.144;8.624;2023-02-26T12:16:42;7.30;92.90
62555;DHT22;48610;52.144;8.624;2023-02-26T12:20:03;7.20;90.70
62555;DHT22;48610;52.144;8.624;2023-02-26T12:27:10;5.60;92.70
62555;DHT22;48610;52.144;8.624;2023-02-26T12:30:44;5.00;93.70
62555;DHT22;48610;52.144;8.624;2023-02-26T12:34:10;5.40;94.40
62555;DHT22;48610;52.144;8.624;2023-02-26T12:37:16;6.10;96.00
62555;DHT22;48610;52.144;8.624;2023-02-26T12:40:28;6.40;93.10
62555;DHT22;48610;52.144;8.624;2023-02-26T12:43:47;5.80;92.60
62555;DHT22;48610;52.144;8.624;2023-02-26T12:47:14;5.10;92.70
62555;DHT22;48610;52.144;8.624;2023-02-26T12:50:29;5.80;94.80
62555;DHT22;48610;52.144;8.624;2023-02-26T13:07:34;7.50;91.50
62555;DHT22;48610;52.144;8.624;2023-02-26T13:14:17;7.70;88.00
62555;DHT22;48610;52.144;8.624;2023-02-26T13:21:00;7.60;88.50
62555;DHT22;48610;52.144;8.624;2023-02-26T13:24:23;7.10;90.60
62555;DHT22;48610;52.144;8.624;2023-02-26T13:27:32;6.90;90.50
62555;DHT22;48610;52.144;8.624;2023-02-26T13:30:46;6.10;93.20
62555;DHT22;48610;52.144;8.624;2023-02-26T13:33:49;5.80;93.10
62555;DHT22;48610;52.144;8.624;2023-02-26T13:36:51;5.90;93.00
62555;DHT22;48610;52.144;8.624;2023-02-26T13:47:51;6.70;90.10
62555;DHT22;48610;52.144;8.624;2023-02-26T14:00:32;6.20;88.10
62555;DHT22;48610;52.144;8.624;2023-02-26T14:06:42;6.20;90.70
62555;DHT22;48610;52.144;8.624;2023-02-26T14:09:59;6.80;87.70
62555;DHT22;48610;52.144;8.624;2023-02-26T14:13:21;6.50;86.80
62555;DHT22;48610;52.144;8.624;2023-02-26T14:16:26;6.60;90.40
62555;DHT22;48610;52.144;8.624;2023-02-26T14:19:35;7.00;87.10
62555;DHT22;48610;52.144;8.624;2023-02-26T14:22:37;7.10;85.80
62555;DHT22;48610;52.144;8.624;2023-02-26T14:25:50;7.30;86.30
62555;DHT22;48610;52.144;8.624;2023-02-26T14:32:13;7.10;83.60
62555;DHT22;48610;52.144;8.624;2023-02-26T14:35:40;7.00;85.60
62555;DHT22;48610;52.144;8.624;2023-02-26T14:38:42;7.10;84.80
62555;DHT22;48610;52.144;8.624;2023-02-26T14:41:45;7.30;85.40
62555;DHT22;48610;52.144;8.624;2023-02-26T14:45:01;7.50;86.00
62555;DHT22;48610;52.144;8.624;2023-02-26T14:48:05;7.60;81.90
62555;DHT22;48610;52.144;8.624;2023-02-26T15:07:58;6.40;81.70
62555;DHT22;48610;52.144;8.624;2023-02-26T15:14:32;5.60;84.30
62555;DHT22;48610;52.144;8.624;2023-02-26T15:17:46;6.00;86.10
62555;DHT22;48610;52.144;8.624;2023-02-26T15:24:02;5.70;90.30
62555;DHT22;48610;52.144;8.624;2023-02-26T15:27:04;5.60;90.20
62555;DHT22;48610;52.144;8.624;2023-02-26T15:30:12;5.60;91.50
62555;DHT22;48610;52.144;8.624;2023-02-26T15:33:14;5.40;92.40
62555;DHT22;48610;52.144;8.624;2023-02-26T15:36:18;5.30;93.50
62555;DHT22;48610;52.144;8.624;2023-02-26T15:39:22;5.20;94.30
62555;DHT22;48610;52.144;8.624;2023-02-26T15:42:29;5.20;94.30
62555;DHT22;48610;52.144;8.624;2023-02-26T15:45:42;5.20;95.10
62555;DHT22;48610;52.144;8.624;2023-02-26T15:48:43;5.10;94.40
62555;DHT22;48610;52.144;8.624;2023-02-26T15:51:44;5.00;95.40
62555;DHT22;48610;52.144;8.624;2023-02-26T15:54:49;4.90;96.10
62555;DHT22;48610;52.144;8.624;2023-02-26T15:57:52;5.00;95.30
62555;DHT22;48610;52.144;8.624;2023-02-26T16:00:54;4.90;95.30
62555;DHT22;48610;52.144;8.624;2023-02-26T16:04:01;4.90;95.40
62555;DHT22;48610;52.144;8.624;2023-02-26T16:07:01;5.00;95.80
62555;DHT22;48610;52.144;8.624;2023-02-26T16:10:06;5.00;95.90
62555;DHT22;48610;52.144;8.624;2023-02-26T16:13:14;4.80;96.40
62555;DHT22;48610;52.144;8.624;2023-02-26T16:16:20;4.70;96.40
62555;DHT22;48610;52.144;8.624;2023-02-26T16:19:33;4.50;96.90
62555;DHT22;48610;52.144;8.624;2023-02-26T16:22:40;4.50;97.10
62555;DHT22;48610;52.144;8.624;2023-02-26T16:26:03;4.70;97.40
62555;DHT22;48610;52.144;8.624;2023-02-26T16:29:32;4.80;97.00
62555;DHT22;48610;52.144;8.624;2023-02-26T16:32:34;4.80;97.30
62555;DHT22;48610;52.144;8.624;2023-02-26T16:35:45;5.00;97.10
62555;DHT22;48610;52.144;8.624;2023-02-26T16:38:58;5.00;96.70
62555;DHT22;48610;52.144;8.624;2023-02-26T16:42:14;4.90;97.10
62555;DHT22;48610;52.144;8.624;2023-02-26T16:45:20;4.90;97.60
62555;DHT22;48610;52.144;8.624;2023-02-26T16:48:46;4.90;96.40
62555;DHT22;48610;52.144;8.624;2023-02-26T16:51:46;4.60;97.60
62555;DHT22;48610;52.144;8.624;2023-02-26T16:54:55;4.50;98.30
62555;DHT22;48610;52.144;8.624;2023-02-26T16:57:57;4.60;98.80
62555;DHT22;48610;52.144;8.624;2023-02-26T17:01:07;4.70;98.20
62555;DHT22;48610;52.144;8.624;2023-02-26T17:04:14;4.80;98.30
62555;DHT22;48610;52.144;8.624;2023-02-26T17:10:36;5.10;98.20
62555;DHT22;48610;52.144;8.624;2023-02-26T17:13:37;5.00;97.80
62555;DHT22;48610;52.144;8.624;2023-02-26T17:17:19;5.00;98.30
62555;DHT22;48610;52.144;8.624;2023-02-26T17:20:19;4.90;98.00
62555;DHT22;48610;52.144;8.624;2023-02-26T17:23:22;4.70;98.70
62555;DHT22;48610;52.144;8.624;2023-02-26T17:26:25;4.90;98.70
62555;DHT22;48610;52.144;8.624;2023-02-26T17:29:37;5.00;98.30
62555;DHT22;48610;52.144;8.624;2023-02-26T17:32:38;5.00;98.30
62555;DHT22;48610;52.144;8.624;2023-02-26T17:35:39;5.20;97.90
62555;DHT22;48610;52.144;8.624;2023-02-26T17:38:40;5.30;98.40
62555;DHT22;48610;52.144;8.624;2023-02-26T17:41:46;5.10;98.00
62555;DHT22;48610;52.144;8.624;2023-02-26T17:44:46;5.30;98.10
62555;DHT22;48610;52.144;8.624;2023-02-26T17:47:48;5.20;97.50
62555;DHT22;48610;52.144;8.624;2023-02-26T17:50:52;4.90;98.10
62555;DHT22;48610;52.144;8.624;2023-02-26T17:53:54;4.60;99.20
62555;DHT22;48610;52.144;8.624;2023-02-26T17:56:54;4.40;99.70
62555;DHT22;48610;52.144;8.624;2023-02-26T17:59:55;4.40;99.90
62555;DHT22;48610;52.144;8.624;2023-02-26T18:02:56;4.40;99.90
62555;DHT22;48610;52.144;8.624;2023-02-26T18:05:57;4.50;99.90
62555;DHT22;48610;52.144;8.624;2023-02-26T18:08:57;4.50;99.90
62555;DHT22;48610;52.144;8.624;2023-02-26T18:11:58;4.50;99.90
62555;DHT22;48610;52.144;8.624;2023-02-26T18:14:58;4.60;99.90
62555;DHT22;48610;52.144;8.624;2023-02-26T18:17:59;4.70;99.90
62555;DHT22;48610;52.144;8.624;2023-02-26T18:20:59;4.70;99.90
62555;DHT22;48610;52.144;8.624;2023-02-26T18:24:00;4.70;99.90
62555;DHT22;48610;52.144;8.624;2023-02-26T18:27:01;4.70;99.90
62555;DHT22;48610;52.144;8.624;2023-02-26T18:30:02;4.80;99.90
62555;DHT22;48610;52.144;8.624;2023-02-26T18:33:03;4.80;99.90
62555;DHT22;48610;52.144;8.624;2023-02-26T18:36:04;4.50;99.90
62555;DHT22;48610;52.144;8.624;2023-02-26T18:39:09;4.60;99.90
62555;DHT22;48610;52.144;8.624;2023-02-26T18:42:22;4.70;99.90
62555;DHT22;48610;52.144;8.624;2023-02-26T18:45:23;4.70;99.90
62555;DHT22;48610;52.144;8.624;2023-02-26T18:48:24;4.60;99.90
62555;DHT22;48610;52.144;8.624;2023-02-26T18:51:24;4.40;99.90
62555;DHT22;48610;52.144;8.624;2023-02-26T18:54:25;4.30;99.90
62555;DHT22;48610;52.144;8.624;2023-02-26T18:57:26;4.40;99.90
62555;DHT22;48610;52.144;8.624;2023-02-26T19:00:27;4.50;99.90
62555;DHT22;48610;52.144;8.624;2023-02-26T19:03:28;4.50;99.90
62555;DHT22;48610;52.144;8.624;2023-02-26T19:06:29;4.50;99.90
62555;DHT22;48610;52.144;8.624;2023-02-26T19:09:31;4.70;99.90
62555;DHT22;48610;52.144;8.624;2023-02-26T19:12:31;4.50;99.90
62555;DHT22;48610;52.144;8.624;2023-02-26T19:15:32;4.40;99.90
62555;DHT22;48610;52.144;8.624;2023-02-26T19:18:33;4.30;99.90
62555;DHT22;48610;52.144;8.624;2023-02-26T19:21:34;4.30;99.90
62555;DHT22;48610;52.144;8.624;2023-02-26T19:24:36;4.40;99.90
62555;DHT22;48610;52.144;8.624;2023-02-26T19:27:37;4.30;99.90
62555;DHT22;48610;52.144;8.624;2023-02-26T19:30:38;4.30;99.90
62555;DHT22;48610;52.144;8.624;2023-02-26T19:33:39;4.40;99.90
62555;DHT22;48610;52.144;8.624;2023-02-26T19:36:40;4.40;99.90
62555;DHT22;48610;52.144;8.624;2023-02-26T19:39:47;4.30;99.90
62555;DHT22;48610;52.144;8.624;2023-02-26T19:42:47;4.40;99.90
62555;DHT22;48610;52.144;8.624;2023-02-26T19:45:48;4.50;99.90
62555;DHT22;48610;52.144;8.624;2023-02-26T19:48:49;4.50;99.90
62555;DHT22;48610;52.144;8.624;2023-02-26T19:51:50;4.50;99.90
62555;DHT22;48610;52.144;8.624;2023-02-26T19:54:50;4.40;99.90
62555;DHT22;48610;52.144;8.624;2023-02-26T19:57:51;4.30;99.90
62555;DHT22;48610;52.144;8.624;2023-02-26T20:00:52;4.10;99.90
62555;DHT22;48610;52.144;8.624;2023-02-26T20:03:52;4.20;99.90
62555;DHT22;48610;52.144;8.624;2023-02-26T20:06:53;4.20;99.90
62555;DHT22;48610;52.144;8.624;2023-02-26T20:09:54;4.10;99.90
62555;DHT22;48610;52.144;8.624;2023-02-26T20:12:54;4.20;99.90
62555;DHT22;48610;52.144;8.624;2023-02-26T20:15:57;4.30;99.90
62555;DHT22;48610;52.144;8.624;2023-02-26T20:18:58;4.30;99.90
62555;DHT22;48610;52.144;8.624;2023-02-26T20:21:59;4.50;99.90
62555;DHT22;48610;52.144;8.624;2023-02-26T20:25:00;4.50;99.90
62555;DHT22;48610;52.144;8.624;2023-02-26T20:28:00;4.30;99.90
62555;DHT22;48610;52.144;8.624;2023-02-26T20:31:01;4.20;99.90
62555;DHT22;48610;52.144;8.624;2023-02-26T20:34:02;4.10;99.90
62555;DHT22;48610;52.144;8.624;2023-02-26T20:37:03;4.10;99.90
62555;DHT22;48610;52.144;8.624;2023-02-26T20:40:04;4.00;99.90
62555;DHT22;48610;52.144;8.624;2023-02-26T20:43:05;4.00;99.90
62555;DHT22;48610;52.144;8.624;2023-02-26T20:46:07;3.80;99.90
62555;DHT22;48610;52.144;8.624;2023-02-26T20:49:08;3.60;99.90
62555;DHT22;48610;52.144;8.624;2023-02-26T20:52:10;3.40;99.90
62555;DHT22;48610;52.144;8.624;2023-02-26T20:55:11;3.50;99.90
62555;DHT22;48610;52.144;8.624;2023-02-26T20:58:11;3.50;99.90
62555;DHT22;48610;52.144;8.624;2023-02-26T21:01:12;3.50;99.90
62555;DHT22;48610;52.144;8.624;2023-02-26T21:04:12;3.40;99.90
62555;DHT22;48610;52.144;8.624;2023-02-26T21:07:13;3.40;99.90
62555;DHT22;48610;52.144;8.624;2023-02-26T21:10:20;3.50;99.90
62555;DHT22;48610;52.144;8.624;2023-02-26T21:13:21;3.50;99.90
62555;DHT22;48610;52.144;8.624;2023-02-26T21:16:22;3.70;99.90
62555;DHT22;48610;52.144;8.624;2023-02-26T21:19:24;3.70;99.90
62555;DHT22;48610;52.144;8.624;2023-02-26T21:22:25;3.70;99.90
62555;DHT22;48610;52.144;8.624;2023-02-26T21:25:25;3.70;99.90
62555;DHT22;48610;52.144;8.624;2023-02-26T21:28:26;3.70;99.90
62555;DHT22;48610;52.144;8.624;2023-02-26T21:31:27;3.70;99.90
62555;DHT22;48610;52.144;8.624;2023-02-26T21:34:29;3.60;99.90
62555;DHT22;48610;52.144;8.624;2023-02-26T21:37:34;3.60;99.90
62555;DHT22;48610;52.144;8.624;2023-02-26T21:40:34;3.60;99.90
62555;DHT22;48610;52.144;8.624;2023-02-26T21:43:35;3.60;99.90
62555;DHT22;48610;52.144;8.624;2023-02-26T21:46:36;3.70;99.90
62555;DHT22;48610;52.144;8.624;2023-02-26T21:49:36;3.70;99.90
62555;DHT22;48610;52.144;8.624;2023-02-26T21:52:37;3.50;99.90